createdAt,value
2018-07-11T00:01:08.877Z,101157.08
2018-07-11T00:04:15.951Z,101152.73
2018-07-11T00:07:21.961Z,101148.86
2018-07-11T00:10:28.843Z,101149.41
2018-07-11T00:13:34.803Z,101143.14
2018-07-11T00:16:45.855Z,101143.97
2018-07-11T00:19:51.827Z,101142.49
2018-07-11T00:22:57.004Z,101157.45
2018-07-11T00:26:02.487Z,101168.52
2018-07-11T00:29:07.682Z,101165.93
2018-07-11T00:32:13.555Z,101165.56
2018-07-11T00:35:19.614Z,101157.72
2018-07-11T00:38:24.811Z,101166.02
2018-07-11T00:41:30.561Z,101154.85
2018-07-11T00:44:36.725Z,101149.14
2018-07-11T00:47:42.446Z,101141.38
2018-07-11T00:50:47.359Z,101142.22
2018-07-11T00:53:52.502Z,101149.88
2018-07-11T00:56:58.550Z,101149.41
2018-07-11T01:00:03.767Z,101147.66
2018-07-11T01:03:09.827Z,101139.08
2018-07-11T01:06:15.421Z,101138.16
2018-07-11T01:09:21.525Z,101135.11
2018-07-11T01:12:29.250Z,101130.77
2018-07-11T01:15:35.063Z,101131.08
2018-07-11T01:18:50.823Z,101128.03
2018-07-11T01:22:02.752Z,101126.69
2018-07-11T01:25:09.275Z,101126.75
2018-07-11T01:28:15.811Z,101126.28
2018-07-11T01:31:22.386Z,101127.14
2018-07-11T01:34:27.788Z,101120.12
2018-07-11T01:37:33.979Z,101115.73
2018-07-11T01:40:39.621Z,101116.04
2018-07-11T01:43:46.216Z,101123.27
2018-07-11T01:46:52.729Z,101120.90
2018-07-11T01:49:58.544Z,101123.11
2018-07-11T01:53:04.177Z,101117.48
2018-07-11T01:56:09.419Z,101104.66
2018-07-11T01:59:16.187Z,101103.36
2018-07-11T02:02:22.120Z,101098.47
2018-07-11T02:05:28.059Z,101092.27
2018-07-11T02:08:34.094Z,101084.57
2018-07-11T02:11:40.922Z,101081.92
2018-07-11T02:14:52.008Z,101084.87
2018-07-11T02:17:58.336Z,101085.40
2018-07-11T02:21:03.422Z,101087.92
2018-07-11T02:24:08.492Z,101086.45
2018-07-11T02:27:15.473Z,101080.54
2018-07-11T02:30:21.020Z,101082.30
2018-07-11T02:33:26.734Z,101076.30
2018-07-11T02:36:33.466Z,101079.06
2018-07-11T02:39:39.799Z,101089.21
2018-07-11T02:42:46.370Z,101085.42
2018-07-11T02:45:51.457Z,101078.97
2018-07-11T02:48:57.268Z,101072.81
2018-07-11T02:52:03.413Z,101070.03
2018-07-11T02:55:09.078Z,101060.24
2018-07-11T02:58:14.282Z,101053.99
2018-07-11T03:01:19.431Z,101037.55
2018-07-11T03:04:25.637Z,101039.12
2018-07-11T03:07:32.727Z,101037.17
2018-07-11T03:10:39.440Z,101034.14
2018-07-11T03:13:44.847Z,101045.02
2018-07-11T03:16:51.221Z,101046.52
2018-07-11T03:19:56.155Z,101038.56
2018-07-11T03:23:01.914Z,101026.27
2018-07-11T03:26:07.103Z,101052.80
2018-07-11T03:29:13.966Z,101029.78
2018-07-11T03:32:19.413Z,101027.27
2018-07-11T03:35:25.223Z,101017.13
2018-07-11T03:38:30.687Z,101024.12
2018-07-11T03:41:37.755Z,101025.24
2018-07-11T03:44:42.765Z,101022.56
2018-07-11T03:47:48.451Z,101018.38
2018-07-11T03:50:53.961Z,101019.11
2018-07-11T03:54:00.970Z,101016.71
2018-07-11T03:57:07.282Z,101019.56
2018-07-11T04:00:14.786Z,101015.84
2018-07-11T04:03:21.097Z,101023.05
2018-07-11T04:06:27.934Z,101024.53
2018-07-11T04:09:33.694Z,101028.31
2018-07-11T04:12:38.852Z,101029.50
2018-07-11T04:15:43.982Z,101026.81
2018-07-11T04:18:49.122Z,101027.55
2018-07-11T04:21:55.190Z,101020.61
2018-07-11T04:25:01.010Z,101028.30
2018-07-11T04:28:05.891Z,101027.73
2018-07-11T04:31:11.778Z,101022.72
2018-07-11T04:34:18.011Z,101034.13
2018-07-11T04:37:25.059Z,101019.58
2018-07-11T04:40:32.034Z,101024.45
2018-07-11T04:43:37.553Z,101037.37
2018-07-11T04:46:44.171Z,101023.69
2018-07-11T04:49:49.179Z,101026.43
2018-07-11T04:52:54.591Z,101029.89
2018-07-11T04:56:02.176Z,101027.38
2018-07-11T04:59:09.270Z,101024.84
2018-07-11T05:02:15.223Z,101029.63
2018-07-11T05:05:20.465Z,101012.01
2018-07-11T05:08:25.922Z,101009.48
2018-07-11T05:11:31.055Z,101008.81
2018-07-11T05:14:37.254Z,101009.45
2018-07-11T05:17:44.551Z,101010.78
2018-07-11T05:20:50.059Z,101007.16
2018-07-11T05:23:55.995Z,101005.67
2018-07-11T05:27:01.929Z,101011.61
2018-07-11T05:30:07.122Z,101003.19
2018-07-11T05:33:12.576Z,101004.26
2018-07-11T05:36:17.766Z,101001.56
2018-07-11T05:39:23.175Z,101003.22
2018-07-11T05:42:30.831Z,100998.75
2018-07-11T05:45:36.334Z,101005.05
2018-07-11T05:48:41.810Z,101005.30
2018-07-11T05:51:46.926Z,101002.05
2018-07-11T05:54:53.111Z,101001.94
2018-07-11T05:57:58.842Z,101004.42
2018-07-11T06:01:04.212Z,101005.30
2018-07-11T06:04:10.160Z,101000.95
2018-07-11T06:07:15.312Z,101002.60
2018-07-11T06:10:21.170Z,101000.72
2018-07-11T06:13:26.471Z,101003.59
2018-07-11T06:16:33.589Z,101003.02
2018-07-11T06:19:40.778Z,101002.44
2018-07-11T06:22:46.579Z,101007.98
2018-07-11T06:25:52.985Z,101010.36
2018-07-11T06:28:59.286Z,101004.59
2018-07-11T06:32:05.030Z,101008.75
2018-07-11T06:35:10.841Z,101024.93
2018-07-11T06:38:16.668Z,101025.75
2018-07-11T06:41:23.541Z,101019.16
2018-07-11T06:44:29.114Z,101020.81
2018-07-11T06:47:35.610Z,101025.23
2018-07-11T06:50:41.391Z,101027.00
2018-07-11T06:53:47.163Z,101032.91
2018-07-11T06:56:53.004Z,101031.72
2018-07-11T07:00:00.390Z,101021.70
2018-07-11T07:03:05.347Z,101006.48
2018-07-11T07:06:11.609Z,101035.86
2018-07-11T07:09:17.743Z,101037.52
2018-07-11T07:12:24.291Z,101038.81
2018-07-11T07:15:29.883Z,101038.92
2018-07-11T07:18:35.075Z,101042.70
2018-07-11T07:21:41.191Z,101037.05
2018-07-11T07:24:46.063Z,101032.21
2018-07-11T07:27:52.826Z,101037.41
2018-07-11T07:30:59.074Z,101031.98
2018-07-11T07:34:04.986Z,101032.73
2018-07-11T07:37:11.156Z,101027.90
2018-07-11T07:40:17.007Z,101022.59
2018-07-11T07:43:23.891Z,101021.08
2018-07-11T07:46:28.885Z,101023.91
2018-07-11T07:49:34.978Z,101021.67
2018-07-11T07:52:40.784Z,101025.38
2018-07-11T07:55:47.692Z,101018.88
2018-07-11T07:58:53.406Z,101018.77
2018-07-11T08:01:59.263Z,101005.67
2018-07-11T08:05:06.251Z,101003.80
2018-07-11T08:08:11.141Z,101011.83
2018-07-11T08:11:17.027Z,101006.91
2018-07-11T08:14:22.202Z,101011.04
2018-07-11T08:17:28.315Z,101015.18
2018-07-11T08:20:35.327Z,101018.13
2018-07-11T08:23:52.383Z,101020.14
2018-07-11T08:27:08.420Z,101020.42
2018-07-11T08:30:33.439Z,101018.77
2018-07-11T08:33:52.353Z,101020.66
2018-07-11T08:39:17.184Z,101016.89
2018-07-11T08:42:31.793Z,101012.64
2018-07-11T08:45:44.084Z,101012.05
2018-07-11T08:51:00.335Z,101025.39
2018-07-11T08:54:15.554Z,101022.33
2018-07-11T08:57:29.973Z,101019.38
2018-07-11T09:01:15.765Z,101025.75
2018-07-11T09:08:41.791Z,101025.86
2018-07-11T09:12:01.108Z,101020.94
2018-07-11T09:15:14.927Z,101010.64
2018-07-11T09:19:34.940Z,101011.47
2018-07-11T09:23:19.747Z,101013.39
2018-07-11T09:26:25.504Z,101005.01
2018-07-11T09:29:30.879Z,101003.31
2018-07-11T09:32:36.023Z,100990.20
2018-07-11T09:35:41.638Z,100983.23
2018-07-11T09:38:46.560Z,100987.38
2018-07-11T09:41:52.785Z,100985.95
2018-07-11T09:44:58.186Z,100993.31
2018-07-11T09:48:03.398Z,101014.22
2018-07-11T09:51:08.785Z,101019.97
2018-07-11T09:54:15.884Z,101017.38
2018-07-11T09:57:22.173Z,101022.56
2018-07-11T10:00:32.527Z,101022.09
2018-07-11T10:03:37.879Z,101018.47
2018-07-11T10:06:42.820Z,101011.03
2018-07-11T10:09:48.282Z,101013.16
2018-07-11T10:12:54.189Z,101012.68
2018-07-11T10:15:59.364Z,101016.45
2018-07-11T10:19:05.887Z,101010.20
2018-07-11T10:22:11.739Z,101008.58
2018-07-11T10:25:18.634Z,101005.39
2018-07-11T10:28:24.374Z,101005.78
2018-07-11T10:31:29.939Z,101008.73
2018-07-11T10:34:36.298Z,100999.18
2018-07-11T10:37:42.480Z,100999.08
2018-07-11T10:40:48.314Z,101001.55
2018-07-11T10:43:53.816Z,101002.65
2018-07-11T10:47:05.512Z,101010.20
2018-07-11T10:50:10.380Z,101007.72
2018-07-11T10:53:16.297Z,101022.16
2018-07-11T10:56:24.150Z,101021.56
2018-07-11T10:59:30.635Z,101025.47
2018-07-11T11:02:36.747Z,101015.89
2018-07-11T11:05:43.013Z,101021.21
2018-07-11T11:08:48.895Z,101019.91
2018-07-11T11:11:54.895Z,101024.17
2018-07-11T11:15:00.615Z,101026.89
2018-07-11T11:18:06.705Z,101024.03
2018-07-11T11:21:12.619Z,101021.90
2018-07-11T11:24:18.003Z,101018.47
2018-07-11T11:27:23.231Z,101022.98
2018-07-11T11:30:29.011Z,101024.97
2018-07-11T11:33:34.200Z,101024.27
2018-07-11T11:36:39.958Z,101024.73
2018-07-11T11:39:45.788Z,101030.41
2018-07-11T11:42:50.765Z,101027.34
2018-07-11T11:45:57.733Z,101035.14
2018-07-11T11:49:03.913Z,101035.85
2018-07-11T11:52:10.954Z,101040.10
2018-07-11T11:55:17.945Z,101039.42
2018-07-11T11:58:25.007Z,101043.08
2018-07-11T12:01:31.858Z,101035.62
2018-07-11T12:04:37.646Z,101032.31
2018-07-11T12:07:43.237Z,101033.05
2018-07-11T12:10:48.817Z,101026.45
2018-07-11T12:13:54.772Z,101040.87
2018-07-11T12:17:00.996Z,101033.30
2018-07-11T12:20:06.192Z,101033.53
2018-07-11T12:23:12.180Z,101032.48
2018-07-11T12:26:18.543Z,101032.59
2018-07-11T12:29:23.726Z,101026.56
2018-07-11T12:32:29.511Z,101026.09
2018-07-11T12:35:35.807Z,101027.62
2018-07-11T12:38:42.963Z,101033.77
2018-07-11T12:41:48.698Z,101030.34
2018-07-11T12:44:53.874Z,101031.41
2018-07-11T12:48:05.079Z,101038.75
2018-07-11T12:51:12.534Z,101035.91
2018-07-11T12:54:17.675Z,101042.77
2018-07-11T12:57:23.114Z,101048.56
2018-07-11T13:00:28.275Z,101049.51
2018-07-11T13:03:34.258Z,101044.18
2018-07-11T13:06:40.475Z,101044.88
2018-07-11T13:09:45.726Z,101049.61
2018-07-11T13:12:52.568Z,101045.62
2018-07-11T13:15:59.340Z,101041.72
2018-07-11T13:19:06.865Z,101042.89
2018-07-11T13:22:13.776Z,101040.64
2018-07-11T13:25:19.626Z,101046.08
2018-07-11T13:28:25.507Z,101048.08
2018-07-11T13:31:30.700Z,101037.33
2018-07-11T13:34:35.568Z,101036.26
2018-07-11T13:37:41.551Z,101048.20
2018-07-11T13:40:47.104Z,101040.14
2018-07-11T13:43:53.376Z,101047.72
2018-07-11T13:46:58.571Z,101053.76
2018-07-11T13:50:05.512Z,101048.55
2018-07-11T13:53:11.006Z,101055.06
2018-07-11T13:56:17.054Z,101047.72
2018-07-11T13:59:24.472Z,101042.17
2018-07-11T14:02:30.059Z,101049.38
2018-07-11T14:05:34.975Z,101046.55
2018-07-11T14:08:41.319Z,101044.77
2018-07-11T14:11:46.523Z,101045.02
2018-07-11T14:14:52.890Z,101045.49
2018-07-11T14:17:58.323Z,101045.62
2018-07-11T14:21:03.171Z,101043.48
2018-07-11T14:24:08.884Z,101048.31
2018-07-11T14:27:15.455Z,101045.48
2018-07-11T14:30:24.495Z,101043.35
2018-07-11T14:33:31.485Z,101046.55
2018-07-11T14:36:37.150Z,101047.03
2018-07-11T14:39:43.099Z,101044.78
2018-07-11T14:42:49.655Z,101040.87
2018-07-11T14:45:55.140Z,101043.47
2018-07-11T14:49:00.306Z,101047.73
2018-07-11T14:52:06.282Z,101049.73
2018-07-11T14:55:12.366Z,101043.96
2018-07-11T14:58:17.887Z,101044.79
2018-07-11T15:01:24.694Z,101050.70
2018-07-11T15:04:31.281Z,101045.62
2018-07-11T15:07:37.434Z,101050.22
2018-07-11T15:10:44.334Z,101051.52
2018-07-11T15:13:50.382Z,101055.08
2018-07-11T15:16:55.357Z,101052.35
2018-07-11T15:20:01.290Z,101060.03
2018-07-11T15:23:06.369Z,101065.48
2018-07-11T15:26:11.490Z,101056.12
2018-07-11T15:29:18.780Z,101059.10
2018-07-11T15:32:24.201Z,101057.31
2018-07-11T15:35:29.335Z,101061.69
2018-07-11T15:38:34.503Z,101060.28
2018-07-11T15:41:40.500Z,101065.61
2018-07-11T15:44:46.647Z,101071.64
2018-07-11T15:47:52.081Z,101068.78
2018-07-11T15:50:57.365Z,101071.50
2018-07-11T15:54:03.288Z,101063.34
2018-07-11T15:57:08.454Z,101062.64
2018-07-11T16:00:14.634Z,101064.42
2018-07-11T16:03:20.349Z,101067.61
2018-07-11T16:06:27.363Z,101068.21
2018-07-11T16:09:54.167Z,101058.48
2018-07-11T16:12:59.069Z,101059.44
2018-07-11T16:16:04.202Z,101067.36
2018-07-11T16:19:09.579Z,101060.16
2018-07-11T16:22:14.972Z,101055.98
2018-07-11T16:25:20.168Z,101055.38
2018-07-11T16:28:26.147Z,101052.06
2018-07-11T16:31:31.676Z,101056.08
2018-07-11T16:34:36.876Z,101057.51
2018-07-11T16:37:43.076Z,101056.33
2018-07-11T16:40:49.275Z,101055.98
2018-07-11T16:43:55.093Z,101063.51
2018-07-11T16:47:03.286Z,101059.97
2018-07-11T16:50:10.291Z,101057.61
2018-07-11T16:53:17.298Z,101054.74
2018-07-11T16:56:23.898Z,101056.75
2018-07-11T16:59:32.814Z,101055.22
2018-07-11T17:02:42.447Z,101058.41
2018-07-11T17:05:52.279Z,101065.95
2018-07-11T17:08:58.137Z,101062.63
2018-07-11T17:12:05.308Z,101063.82
2018-07-11T17:15:12.194Z,101060.04
2018-07-11T17:18:24.289Z,101059.33
2018-07-11T17:21:32.938Z,101063.44
2018-07-11T17:24:46.591Z,101063.20
2018-07-11T17:27:59.496Z,101061.19
2018-07-11T17:31:05.438Z,101058.82
2018-07-11T17:34:10.422Z,101059.27
2018-07-11T17:37:16.102Z,101059.73
2018-07-11T17:40:24.765Z,101060.08
2018-07-11T17:43:39.875Z,101063.35
2018-07-11T17:46:47.428Z,101064.30
2018-07-11T17:49:56.250Z,101062.41
2018-07-11T17:53:10.706Z,101063.82
2018-07-11T17:56:15.815Z,101056.14
2018-07-11T17:59:28.849Z,101052.44
2018-07-11T18:02:39.903Z,101055.16
2018-07-11T18:05:56.622Z,101052.56
2018-07-11T18:09:08.335Z,101063.66
2018-07-11T18:12:21.902Z,101075.93
2018-07-11T18:15:32.875Z,101070.02
2018-07-11T18:18:45.296Z,101078.38
2018-07-11T18:24:05.495Z,101067.73
2018-07-11T18:27:18.459Z,101073.12
2018-07-11T18:30:34.673Z,101076.31
2018-07-11T18:33:57.926Z,101077.69
2018-07-11T18:37:16.030Z,101085.59
2018-07-11T18:40:39.566Z,101086.66
2018-07-11T18:44:00.759Z,101085.47
2018-07-11T18:49:22.710Z,101088.17
2018-07-11T18:52:32.305Z,101098.80
2018-07-11T18:55:45.337Z,101103.23
2018-07-11T18:58:57.767Z,101104.65
2018-07-11T19:02:17.771Z,101102.63
2018-07-11T19:05:33.229Z,101099.68
2018-07-11T19:08:48.131Z,101097.20
2018-07-11T19:11:57.583Z,101092.12
2018-07-11T19:15:10.511Z,101095.19
2018-07-11T19:18:24.002Z,101104.82
2018-07-11T19:21:40.707Z,101102.34
2018-07-11T19:24:55.702Z,101106.34
2018-07-11T19:28:14.399Z,101104.69
2018-07-11T19:31:34.781Z,101105.63
2018-07-11T19:34:46.379Z,101099.72
2018-07-11T19:38:04.686Z,101097.23
2018-07-11T19:41:21.944Z,101105.60
2018-07-11T19:45:43.783Z,101102.14
2018-07-11T19:48:59.149Z,101110.52
2018-07-11T19:52:25.642Z,101110.27
2018-07-11T19:56:12.029Z,101117.80
2018-07-11T19:59:38.372Z,101122.64
2018-07-11T20:02:57.512Z,101133.59
2018-07-11T20:06:17.728Z,101129.42
2018-07-11T20:09:32.113Z,101123.98
2018-07-11T20:12:45.765Z,101127.41
2018-07-11T20:16:09.539Z,101121.14
2018-07-11T20:19:33.799Z,101126.91
2018-07-11T20:22:57.022Z,101121.44
2018-07-11T20:26:07.586Z,101121.08
2018-07-11T20:29:13.060Z,101111.74
2018-07-11T20:32:18.738Z,101102.77
2018-07-11T20:35:24.728Z,101103.70
2018-07-11T20:38:30.238Z,101102.16
2018-07-11T20:41:36.020Z,101101.80
2018-07-11T20:44:41.506Z,101101.16
2018-07-11T20:47:46.798Z,101103.86
2018-07-11T20:50:51.949Z,101106.56
2018-07-11T20:53:57.094Z,101101.13
2018-07-11T20:57:02.309Z,101100.41
2018-07-11T21:00:18.779Z,101098.94
2018-07-11T21:04:16.851Z,101103.76
2018-07-11T21:07:32.238Z,101109.27
2018-07-11T21:12:58.620Z,101108.63
2018-07-11T21:16:20.900Z,101107.84
2018-07-11T21:19:26.022Z,101111.08
2018-07-11T21:22:32.143Z,101107.51
2018-07-11T21:25:38.228Z,101111.61
2018-07-11T21:28:44.259Z,101107.90
2018-07-11T21:31:50.337Z,101110.70
2018-07-11T21:34:56.394Z,101107.39
2018-07-11T21:38:02.562Z,101111.13
2018-07-11T21:41:07.751Z,101108.35
2018-07-11T21:44:12.878Z,101107.27
2018-07-11T21:47:18.040Z,101108.02
2018-07-11T21:50:23.171Z,101099.52
2018-07-11T21:53:29.707Z,101107.50
2018-07-11T21:56:36.462Z,101109.83
2018-07-11T21:59:42.562Z,101112.23
2018-07-11T22:02:48.415Z,101116.23
2018-07-11T22:05:53.559Z,101113.95
2018-07-11T22:09:02.535Z,101109.44
2018-07-11T22:12:07.402Z,101110.08
2018-07-11T22:15:13.564Z,101116.66
2018-07-11T22:18:30.626Z,101122.05
2018-07-11T22:21:34.718Z,101124.91
2018-07-11T22:24:38.264Z,101130.09
2018-07-11T22:27:41.802Z,101131.13
2018-07-11T22:30:45.868Z,101137.23
2018-07-11T22:33:49.399Z,101134.48
2018-07-11T22:36:53.925Z,101131.06
2018-07-11T22:39:57.479Z,101130.41
2018-07-11T22:43:01.448Z,101124.13
2018-07-11T22:46:06.044Z,101125.53
2018-07-11T22:49:10.178Z,101129.78
2018-07-11T22:52:14.277Z,101126.36
2018-07-11T22:55:18.766Z,101124.70
2018-07-11T22:58:23.051Z,101121.64
2018-07-11T23:01:26.582Z,101119.52
2018-07-11T23:04:30.152Z,101119.16
2018-07-11T23:07:33.697Z,101124.34
2018-07-11T23:10:38.157Z,101114.55
2018-07-11T23:13:42.366Z,101120.66
2018-07-11T23:16:46.155Z,101121.66
2018-07-11T23:19:51.437Z,101116.11
2018-07-11T23:22:54.983Z,101105.85
2018-07-11T23:25:59.046Z,101107.61
2018-07-11T23:29:02.707Z,101101.23
2018-07-11T23:32:06.983Z,101099.22
2018-07-11T23:35:11.526Z,101099.22
2018-07-11T23:38:15.904Z,101096.62
2018-07-11T23:41:19.434Z,101093.67
2018-07-11T23:44:24.035Z,101090.33
2018-07-11T23:47:28.179Z,101082.19
2018-07-11T23:50:31.728Z,101087.38
2018-07-11T23:53:35.282Z,101097.72
2018-07-11T23:56:39.854Z,101090.03
2018-07-11T23:59:44.086Z,101090.13
